sensor_id;sensor_type;location;lat;lon;timestamp;temperature;humidity
14670;DHT22;7423;48.722;9.350;2023-05-27T00:01:59;19.80;95.10
14670;DHT22;7423;48.722;9.350;2023-05-27T00:04:26;19.80;95.10
14670;DHT22;7423;48.722;9.350;2023-05-27T00:06:53;19.80;94.80
14670;DHT22;7423;48.722;9.350;2023-05-27T00:09:20;19.80;94.70
14670;DHT22;7423;48.722;9.350;2023-05-27T00:11:47;19.80;94.50
14670;DHT22;7423;48.722;9.350;2023-05-27T00:14:14;19.80;94.70
14670;DHT22;7423;48.722;9.350;2023-05-27T00:16:41;19.80;94.50
14670;DHT22;7423;48.722;9.350;2023-05-27T00:19:08;19.80;94.20
14670;DHT22;7423;48.722;9.350;2023-05-27T00:21:35;19.80;94.50
14670;DHT22;7423;48.722;9.350;2023-05-27T00:24:03;19.70;94.30
14670;DHT22;7423;48.722;9.350;2023-05-27T00:26:30;19.70;94.30
14670;DHT22;7423;48.722;9.350;2023-05-27T00:28:56;19.70;94.10
14670;DHT22;7423;48.722;9.350;2023-05-27T00:31:23;19.70;94.10
14670;DHT22;7423;48.722;9.350;2023-05-27T00:33:51;19.70;94.20
14670;DHT22;7423;48.722;9.350;2023-05-27T00:36:18;19.70;94.20
14670;DHT22;7423;48.722;9.350;2023-05-27T00:38:45;19.70;93.90
14670;DHT22;7423;48.722;9.350;2023-05-27T00:41:12;19.70;94.00
14670;DHT22;7423;48.722;9.350;2023-05-27T00:43:39;19.70;94.00
14670;DHT22;7423;48.722;9.350;2023-05-27T00:46:06;19.70;93.90
14670;DHT22;7423;48.722;9.350;2023-05-27T00:48:33;19.70;93.90
14670;DHT22;7423;48.722;9.350;2023-05-27T00:51:00;19.70;93.90
14670;DHT22;7423;48.722;9.350;2023-05-27T00:53:28;19.60;94.00
14670;DHT22;7423;48.722;9.350;2023-05-27T00:56:02;19.60;94.00
14670;DHT22;7423;48.722;9.350;2023-05-27T00:58:29;19.60;93.90
14670;DHT22;7423;48.722;9.350;2023-05-27T01:00:56;19.60;94.00
14670;DHT22;7423;48.722;9.350;2023-05-27T01:03:23;19.60;94.10
14670;DHT22;7423;48.722;9.350;2023-05-27T01:05:56;19.60;94.10
14670;DHT22;7423;48.722;9.350;2023-05-27T01:08:57;19.60;94.10
14670;DHT22;7423;48.722;9.350;2023-05-27T01:11:34;19.50;94.20
14670;DHT22;7423;48.722;9.350;2023-05-27T01:14:09;19.50;94.10
14670;DHT22;7423;48.722;9.350;2023-05-27T01:16:38;19.50;94.10
14670;DHT22;7423;48.722;9.350;2023-05-27T01:19:27;19.50;94.10
14670;DHT22;7423;48.722;9.350;2023-05-27T01:21:59;19.50;94.20
14670;DHT22;7423;48.722;9.350;2023-05-27T01:24:27;19.50;94.30
14670;DHT22;7423;48.722;9.350;2023-05-27T01:26:54;19.50;94.50
14670;DHT22;7423;48.722;9.350;2023-05-27T01:29:27;19.40;94.30
14670;DHT22;7423;48.722;9.350;2023-05-27T01:35:35;19.40;94.20
14670;DHT22;7423;48.722;9.350;2023-05-27T01:38:10;19.30;94.30
14670;DHT22;7423;48.722;9.350;2023-05-27T01:40:40;19.30;94.30
14670;DHT22;7423;48.722;9.350;2023-05-27T01:43:09;19.20;94.30
14670;DHT22;7423;48.722;9.350;2023-05-27T01:45:36;19.20;95.00
14670;DHT22;7423;48.722;9.350;2023-05-27T01:48:04;19.10;95.30
14670;DHT22;7423;48.722;9.350;2023-05-27T01:50:31;19.00;95.60
14670;DHT22;7423;48.722;9.350;2023-05-27T01:53:00;19.00;95.60
14670;DHT22;7423;48.722;9.350;2023-05-27T01:55:27;19.00;95.60
14670;DHT22;7423;48.722;9.350;2023-05-27T01:57:54;18.90;95.80
14670;DHT22;7423;48.722;9.350;2023-05-27T02:00:21;18.90;96.30
14670;DHT22;7423;48.722;9.350;2023-05-27T02:02:48;18.80;96.30
14670;DHT22;7423;48.722;9.350;2023-05-27T02:05:15;18.80;96.40
14670;DHT22;7423;48.722;9.350;2023-05-27T02:07:42;18.80;96.40
14670;DHT22;7423;48.722;9.350;2023-05-27T02:10:09;18.80;96.40
14670;DHT22;7423;48.722;9.350;2023-05-27T02:12:36;18.70;96.70
14670;DHT22;7423;48.722;9.350;2023-05-27T02:15:04;18.70;96.80
14670;DHT22;7423;48.722;9.350;2023-05-27T02:17:31;18.70;96.80
14670;DHT22;7423;48.722;9.350;2023-05-27T02:19:58;18.60;96.60
14670;DHT22;7423;48.722;9.350;2023-05-27T02:22:25;18.60;96.50
14670;DHT22;7423;48.722;9.350;2023-05-27T02:24:52;18.50;96.70
14670;DHT22;7423;48.722;9.350;2023-05-27T02:27:19;18.50;96.70
14670;DHT22;7423;48.722;9.350;2023-05-27T02:29:45;18.50;96.70
14670;DHT22;7423;48.722;9.350;2023-05-27T02:32:12;18.50;96.60
14670;DHT22;7423;48.722;9.350;2023-05-27T02:34:39;18.40;96.80
14670;DHT22;7423;48.722;9.350;2023-05-27T02:37:07;18.40;97.20
14670;DHT22;7423;48.722;9.350;2023-05-27T02:39:34;18.40;97.40
14670;DHT22;7423;48.722;9.350;2023-05-27T02:42:01;18.30;97.40
14670;DHT22;7423;48.722;9.350;2023-05-27T02:44:28;18.30;97.30
14670;DHT22;7423;48.722;9.350;2023-05-27T02:46:54;18.30;97.30
14670;DHT22;7423;48.722;9.350;2023-05-27T02:49:21;18.30;97.40
14670;DHT22;7423;48.722;9.350;2023-05-27T02:51:48;18.20;97.30
14670;DHT22;7423;48.722;9.350;2023-05-27T02:54:15;18.20;97.30
14670;DHT22;7423;48.722;9.350;2023-05-27T02:56:42;18.10;97.30
14670;DHT22;7423;48.722;9.350;2023-05-27T02:59:09;18.20;97.60
14670;DHT22;7423;48.722;9.350;2023-05-27T03:01:36;18.20;97.10
14670;DHT22;7423;48.722;9.350;2023-05-27T03:04:03;18.20;97.10
14670;DHT22;7423;48.722;9.350;2023-05-27T03:06:30;18.20;97.20
14670;DHT22;7423;48.722;9.350;2023-05-27T03:08:57;18.20;97.40
14670;DHT22;7423;48.722;9.350;2023-05-27T03:11:23;18.20;97.40
14670;DHT22;7423;48.722;9.350;2023-05-27T03:13:50;18.10;97.20
14670;DHT22;7423;48.722;9.350;2023-05-27T03:16:17;18.10;97.40
14670;DHT22;7423;48.722;9.350;2023-05-27T03:18:46;18.10;97.50
14670;DHT22;7423;48.722;9.350;2023-05-27T03:21:13;18.10;97.60
14670;DHT22;7423;48.722;9.350;2023-05-27T03:23:40;18.10;97.60
14670;DHT22;7423;48.722;9.350;2023-05-27T03:26:07;18.00;97.70
14670;DHT22;7423;48.722;9.350;2023-05-27T03:28:33;18.10;97.80
14670;DHT22;7423;48.722;9.350;2023-05-27T03:31:00;18.00;97.80
14670;DHT22;7423;48.722;9.350;2023-05-27T03:33:27;18.00;97.90
14670;DHT22;7423;48.722;9.350;2023-05-27T03:35:54;18.00;97.90
14670;DHT22;7423;48.722;9.350;2023-05-27T03:38:22;18.00;98.00
14670;DHT22;7423;48.722;9.350;2023-05-27T03:40:49;17.90;98.00
14670;DHT22;7423;48.722;9.350;2023-05-27T03:43:16;17.90;98.00
14670;DHT22;7423;48.722;9.350;2023-05-27T03:45:43;17.90;98.10
14670;DHT22;7423;48.722;9.350;2023-05-27T03:48:10;17.90;98.20
14670;DHT22;7423;48.722;9.350;2023-05-27T03:50:37;17.90;98.10
14670;DHT22;7423;48.722;9.350;2023-05-27T03:53:04;17.90;98.20
14670;DHT22;7423;48.722;9.350;2023-05-27T03:55:31;17.80;98.10
14670;DHT22;7423;48.722;9.350;2023-05-27T03:57:58;17.90;98.00
14670;DHT22;7423;48.722;9.350;2023-05-27T04:00:25;17.80;97.90
14670;DHT22;7423;48.722;9.350;2023-05-27T04:02:52;17.80;97.80
14670;DHT22;7423;48.722;9.350;2023-05-27T04:05:20;17.80;97.70
14670;DHT22;7423;48.722;9.350;2023-05-27T04:07:46;17.80;97.70
14670;DHT22;7423;48.722;9.350;2023-05-27T04:10:13;17.80;97.80
14670;DHT22;7423;48.722;9.350;2023-05-27T04:12:40;17.80;97.80
14670;DHT22;7423;48.722;9.350;2023-05-27T04:15:08;17.80;97.80
14670;DHT22;7423;48.722;9.350;2023-05-27T04:17:35;17.70;97.70
14670;DHT22;7423;48.722;9.350;2023-05-27T04:20:03;17.70;97.80
14670;DHT22;7423;48.722;9.350;2023-05-27T04:22:41;17.70;97.70
14670;DHT22;7423;48.722;9.350;2023-05-27T04:25:09;17.70;97.50
14670;DHT22;7423;48.722;9.350;2023-05-27T04:27:36;17.70;97.50
14670;DHT22;7423;48.722;9.350;2023-05-27T04:30:05;17.70;97.50
14670;DHT22;7423;48.722;9.350;2023-05-27T04:32:35;17.70;97.30
14670;DHT22;7423;48.722;9.350;2023-05-27T04:35:08;17.70;97.40
14670;DHT22;7423;48.722;9.350;2023-05-27T04:37:36;17.70;97.30
14670;DHT22;7423;48.722;9.350;2023-05-27T04:40:07;17.70;97.60
14670;DHT22;7423;48.722;9.350;2023-05-27T04:42:35;17.80;97.20
14670;DHT22;7423;48.722;9.350;2023-05-27T04:45:06;17.80;97.30
14670;DHT22;7423;48.722;9.350;2023-05-27T04:47:35;17.80;97.40
14670;DHT22;7423;48.722;9.350;2023-05-27T04:50:08;17.80;97.50
14670;DHT22;7423;48.722;9.350;2023-05-27T04:52:35;17.80;97.40
14670;DHT22;7423;48.722;9.350;2023-05-27T04:55:05;17.80;97.40
14670;DHT22;7423;48.722;9.350;2023-05-27T04:57:34;17.80;97.40
14670;DHT22;7423;48.722;9.350;2023-05-27T05:00:02;17.80;97.30
14670;DHT22;7423;48.722;9.350;2023-05-27T05:02:30;17.80;97.30
14670;DHT22;7423;48.722;9.350;2023-05-27T05:05:06;17.80;97.30
14670;DHT22;7423;48.722;9.350;2023-05-27T05:07:40;17.80;97.30
14670;DHT22;7423;48.722;9.350;2023-05-27T05:10:08;17.90;97.40
14670;DHT22;7423;48.722;9.350;2023-05-27T05:12:38;17.90;97.50
14670;DHT22;7423;48.722;9.350;2023-05-27T05:15:06;17.90;97.50
14670;DHT22;7423;48.722;9.350;2023-05-27T05:17:34;17.90;97.60
14670;DHT22;7423;48.722;9.350;2023-05-27T05:20:01;17.90;97.50
14670;DHT22;7423;48.722;9.350;2023-05-27T05:22:30;17.90;97.50
14670;DHT22;7423;48.722;9.350;2023-05-27T05:24:57;17.90;97.40
14670;DHT22;7423;48.722;9.350;2023-05-27T05:27:24;17.90;97.40
14670;DHT22;7423;48.722;9.350;2023-05-27T05:29:51;17.90;97.40
14670;DHT22;7423;48.722;9.350;2023-05-27T05:32:19;17.90;97.40
14670;DHT22;7423;48.722;9.350;2023-05-27T05:34:45;17.90;97.40
14670;DHT22;7423;48.722;9.350;2023-05-27T05:37:12;18.00;97.40
14670;DHT22;7423;48.722;9.350;2023-05-27T05:39:41;18.00;97.40
14670;DHT22;7423;48.722;9.350;2023-05-27T05:42:09;18.00;97.30
14670;DHT22;7423;48.722;9.350;2023-05-27T05:44:36;18.10;97.40
14670;DHT22;7423;48.722;9.350;2023-05-27T05:47:03;18.10;97.50
14670;DHT22;7423;48.722;9.350;2023-05-27T05:49:30;18.10;97.60
14670;DHT22;7423;48.722;9.350;2023-05-27T05:51:57;17.60;97.30
14670;DHT22;7423;48.722;9.350;2023-05-27T05:54:24;18.10;97.50
14670;DHT22;7423;48.722;9.350;2023-05-27T05:56:52;18.10;97.50
14670;DHT22;7423;48.722;9.350;2023-05-27T05:59:19;18.20;97.50
14670;DHT22;7423;48.722;9.350;2023-05-27T06:01:46;18.20;97.40
14670;DHT22;7423;48.722;9.350;2023-05-27T06:04:13;18.20;97.40
14670;DHT22;7423;48.722;9.350;2023-05-27T06:06:40;18.20;97.30
14670;DHT22;7423;48.722;9.350;2023-05-27T06:09:07;18.30;97.30
14670;DHT22;7423;48.722;9.350;2023-05-27T06:11:34;18.30;97.20
14670;DHT22;7423;48.722;9.350;2023-05-27T06:14:01;18.30;97.30
14670;DHT22;7423;48.722;9.350;2023-05-27T06:16:28;18.30;97.20
14670;DHT22;7423;48.722;9.350;2023-05-27T06:18:55;18.30;97.20
14670;DHT22;7423;48.722;9.350;2023-05-27T06:21:22;18.30;97.20
14670;DHT22;7423;48.722;9.350;2023-05-27T06:23:49;18.30;97.30
14670;DHT22;7423;48.722;9.350;2023-05-27T06:26:16;18.30;97.20
14670;DHT22;7423;48.722;9.350;2023-05-27T06:28:42;18.40;97.30
14670;DHT22;7423;48.722;9.350;2023-05-27T06:31:09;18.30;97.30
14670;DHT22;7423;48.722;9.350;2023-05-27T06:33:38;18.30;97.40
14670;DHT22;7423;48.722;9.350;2023-05-27T06:36:05;18.30;97.50
14670;DHT22;7423;48.722;9.350;2023-05-27T06:38:32;18.30;97.50
14670;DHT22;7423;48.722;9.350;2023-05-27T06:40:59;18.30;97.60
14670;DHT22;7423;48.722;9.350;2023-05-27T06:43:26;18.30;97.60
14670;DHT22;7423;48.722;9.350;2023-05-27T06:45:53;18.40;97.70
14670;DHT22;7423;48.722;9.350;2023-05-27T06:48:30;18.40;97.70
14670;DHT22;7423;48.722;9.350;2023-05-27T06:50:57;18.50;97.70
14670;DHT22;7423;48.722;9.350;2023-05-27T06:53:24;18.50;97.70
14670;DHT22;7423;48.722;9.350;2023-05-27T06:55:51;18.50;97.60
14670;DHT22;7423;48.722;9.350;2023-05-27T06:58:18;18.50;97.70
14670;DHT22;7423;48.722;9.350;2023-05-27T07:00:44;18.60;97.80
14670;DHT22;7423;48.722;9.350;2023-05-27T07:03:11;18.60;97.80
14670;DHT22;7423;48.722;9.350;2023-05-27T07:05:38;18.60;97.80
14670;DHT22;7423;48.722;9.350;2023-05-27T07:08:06;18.70;97.80
14670;DHT22;7423;48.722;9.350;2023-05-27T07:10:33;18.70;97.60
14670;DHT22;7423;48.722;9.350;2023-05-27T07:13:00;18.70;97.50
14670;DHT22;7423;48.722;9.350;2023-05-27T07:15:27;18.70;97.50
14670;DHT22;7423;48.722;9.350;2023-05-27T07:17:54;18.70;97.40
14670;DHT22;7423;48.722;9.350;2023-05-27T07:20:21;18.80;97.50
14670;DHT22;7423;48.722;9.350;2023-05-27T07:22:48;18.80;97.40
14670;DHT22;7423;48.722;9.350;2023-05-27T07:25:15;18.80;97.20
14670;DHT22;7423;48.722;9.350;2023-05-27T07:27:42;18.90;97.10
14670;DHT22;7423;48.722;9.350;2023-05-27T07:30:09;18.90;97.10
14670;DHT22;7423;48.722;9.350;2023-05-27T07:32:36;19.00;97.10
14670;DHT22;7423;48.722;9.350;2023-05-27T07:35:05;19.10;97.00
14670;DHT22;7423;48.722;9.350;2023-05-27T07:37:33;19.10;96.90
14670;DHT22;7423;48.722;9.350;2023-05-27T07:40:00;19.10;96.90
14670;DHT22;7423;48.722;9.350;2023-05-27T07:42:27;19.20;97.00
14670;DHT22;7423;48.722;9.350;2023-05-27T07:44:54;19.20;97.00
14670;DHT22;7423;48.722;9.350;2023-05-27T07:47:21;19.20;96.90
14670;DHT22;7423;48.722;9.350;2023-05-27T07:49:50;19.30;96.80
14670;DHT22;7423;48.722;9.350;2023-05-27T07:52:17;19.20;96.70
14670;DHT22;7423;48.722;9.350;2023-05-27T07:54:44;19.30;96.70
14670;DHT22;7423;48.722;9.350;2023-05-27T07:57:20;19.40;96.70
14670;DHT22;7423;48.722;9.350;2023-05-27T07:59:47;19.50;96.60
14670;DHT22;7423;48.722;9.350;2023-05-27T08:02:14;19.50;96.50
14670;DHT22;7423;48.722;9.350;2023-05-27T08:04:41;19.50;96.60
14670;DHT22;7423;48.722;9.350;2023-05-27T08:07:10;19.60;96.60
14670;DHT22;7423;48.722;9.350;2023-05-27T08:09:37;19.60;96.50
14670;DHT22;7423;48.722;9.350;2023-05-27T08:12:04;19.60;96.40
14670;DHT22;7423;48.722;9.350;2023-05-27T08:14:33;19.70;96.30
14670;DHT22;7423;48.722;9.350;2023-05-27T08:17:01;19.70;96.40
14670;DHT22;7423;48.722;9.350;2023-05-27T08:19:28;19.80;96.10
14670;DHT22;7423;48.722;9.350;2023-05-27T08:21:56;19.90;95.90
14670;DHT22;7423;48.722;9.350;2023-05-27T08:24:23;19.90;96.00
14670;DHT22;7423;48.722;9.350;2023-05-27T08:26:50;20.00;96.20
14670;DHT22;7423;48.722;9.350;2023-05-27T08:29:18;20.00;96.00
14670;DHT22;7423;48.722;9.350;2023-05-27T08:31:46;20.10;95.80
14670;DHT22;7423;48.722;9.350;2023-05-27T08:34:13;20.10;95.80
14670;DHT22;7423;48.722;9.350;2023-05-27T08:36:40;20.20;95.80
14670;DHT22;7423;48.722;9.350;2023-05-27T08:39:07;20.20;95.90
14670;DHT22;7423;48.722;9.350;2023-05-27T08:41:34;20.30;95.70
14670;DHT22;7423;48.722;9.350;2023-05-27T08:44:03;20.30;95.60
14670;DHT22;7423;48.722;9.350;2023-05-27T08:46:48;20.30;95.60
14670;DHT22;7423;48.722;9.350;2023-05-27T08:49:17;20.40;95.60
14670;DHT22;7423;48.722;9.350;2023-05-27T08:51:45;20.50;96.00
14670;DHT22;7423;48.722;9.350;2023-05-27T08:54:12;20.50;95.70
14670;DHT22;7423;48.722;9.350;2023-05-27T08:56:40;20.50;95.60
14670;DHT22;7423;48.722;9.350;2023-05-27T08:59:08;20.60;95.70
14670;DHT22;7423;48.722;9.350;2023-05-27T09:01:35;20.60;95.60
14670;DHT22;7423;48.722;9.350;2023-05-27T09:04:03;20.70;95.60
14670;DHT22;7423;48.722;9.350;2023-05-27T09:06:29;20.70;95.90
14670;DHT22;7423;48.722;9.350;2023-05-27T09:08:57;20.80;95.70
14670;DHT22;7423;48.722;9.350;2023-05-27T09:11:25;20.80;95.60
14670;DHT22;7423;48.722;9.350;2023-05-27T09:13:55;20.80;95.60
14670;DHT22;7423;48.722;9.350;2023-05-27T09:16:22;20.90;95.80
14670;DHT22;7423;48.722;9.350;2023-05-27T09:18:50;20.90;95.70
14670;DHT22;7423;48.722;9.350;2023-05-27T09:21:17;21.00;95.90
14670;DHT22;7423;48.722;9.350;2023-05-27T09:23:44;21.00;96.20
14670;DHT22;7423;48.722;9.350;2023-05-27T09:26:12;21.00;96.00
14670;DHT22;7423;48.722;9.350;2023-05-27T09:28:40;21.00;96.10
14670;DHT22;7423;48.722;9.350;2023-05-27T09:31:08;21.10;96.20
14670;DHT22;7423;48.722;9.350;2023-05-27T09:33:38;21.20;96.10
14670;DHT22;7423;48.722;9.350;2023-05-27T09:36:06;20.40;95.80
14670;DHT22;7423;48.722;9.350;2023-05-27T09:38:35;21.30;95.60
14670;DHT22;7423;48.722;9.350;2023-05-27T09:41:03;21.30;95.70
14670;DHT22;7423;48.722;9.350;2023-05-27T09:43:30;21.40;95.70
14670;DHT22;7423;48.722;9.350;2023-05-27T09:46:03;21.40;95.80
14670;DHT22;7423;48.722;9.350;2023-05-27T09:48:31;21.50;95.70
14670;DHT22;7423;48.722;9.350;2023-05-27T09:51:03;21.60;95.70
14670;DHT22;7423;48.722;9.350;2023-05-27T09:53:30;21.60;95.60
14670;DHT22;7423;48.722;9.350;2023-05-27T09:55:57;21.60;95.50
14670;DHT22;7423;48.722;9.350;2023-05-27T09:58:25;21.60;95.50
14670;DHT22;7423;48.722;9.350;2023-05-27T10:00:52;21.70;95.40
14670;DHT22;7423;48.722;9.350;2023-05-27T10:03:22;21.70;95.40
14670;DHT22;7423;48.722;9.350;2023-05-27T10:05:51;21.80;95.30
14670;DHT22;7423;48.722;9.350;2023-05-27T10:08:19;21.70;95.30
14670;DHT22;7423;48.722;9.350;2023-05-27T10:10:49;21.80;95.30
14670;DHT22;7423;48.722;9.350;2023-05-27T10:13:18;21.80;95.30
14670;DHT22;7423;48.722;9.350;2023-05-27T10:15:47;21.90;95.20
14670;DHT22;7423;48.722;9.350;2023-05-27T10:18:26;21.90;95.40
14670;DHT22;7423;48.722;9.350;2023-05-27T10:20:59;22.00;95.20
14670;DHT22;7423;48.722;9.350;2023-05-27T10:23:28;22.10;94.90
14670;DHT22;7423;48.722;9.350;2023-05-27T10:26:05;22.20;94.90
14670;DHT22;7423;48.722;9.350;2023-05-27T10:28:35;22.20;94.90
14670;DHT22;7423;48.722;9.350;2023-05-27T10:31:11;22.30;94.80
14670;DHT22;7423;48.722;9.350;2023-05-27T10:33:43;22.30;94.70
14670;DHT22;7423;48.722;9.350;2023-05-27T10:36:17;22.40;94.80
14670;DHT22;7423;48.722;9.350;2023-05-27T10:39:18;22.40;94.80
14670;DHT22;7423;48.722;9.350;2023-05-27T10:41:53;22.50;94.70
14670;DHT22;7423;48.722;9.350;2023-05-27T10:44:28;22.60;94.40
14670;DHT22;7423;48.722;9.350;2023-05-27T10:47:03;22.60;94.50
14670;DHT22;7423;48.722;9.350;2023-05-27T10:49:36;22.70;94.40
14670;DHT22;7423;48.722;9.350;2023-05-27T10:52:11;22.70;94.40
14670;DHT22;7423;48.722;9.350;2023-05-27T10:54:44;22.80;94.00
14670;DHT22;7423;48.722;9.350;2023-05-27T10:57:14;22.90;93.90
14670;DHT22;7423;48.722;9.350;2023-05-27T10:59:48;22.90;93.80
14670;DHT22;7423;48.722;9.350;2023-05-27T11:02:23;23.00;93.80
14670;DHT22;7423;48.722;9.350;2023-05-27T11:04:50;23.10;93.90
14670;DHT22;7423;48.722;9.350;2023-05-27T11:07:19;23.10;93.70
14670;DHT22;7423;48.722;9.350;2023-05-27T11:09:49;23.20;93.70
14670;DHT22;7423;48.722;9.350;2023-05-27T11:12:18;23.20;93.40
14670;DHT22;7423;48.722;9.350;2023-05-27T11:14:51;23.30;93.60
14670;DHT22;7423;48.722;9.350;2023-05-27T11:17:20;23.30;93.20
14670;DHT22;7423;48.722;9.350;2023-05-27T11:19:48;23.30;93.80
14670;DHT22;7423;48.722;9.350;2023-05-27T11:22:17;23.30;93.70
14670;DHT22;7423;48.722;9.350;2023-05-27T11:25:01;23.40;93.50
14670;DHT22;7423;48.722;9.350;2023-05-27T11:27:36;23.50;93.40
14670;DHT22;7423;48.722;9.350;2023-05-27T11:30:08;23.50;92.80
14670;DHT22;7423;48.722;9.350;2023-05-27T11:32:36;23.60;92.90
14670;DHT22;7423;48.722;9.350;2023-05-27T11:35:04;23.80;92.60
14670;DHT22;7423;48.722;9.350;2023-05-27T11:37:34;23.90;92.40
14670;DHT22;7423;48.722;9.350;2023-05-27T11:40:01;24.00;92.40
14670;DHT22;7423;48.722;9.350;2023-05-27T11:42:29;24.00;92.00
14670;DHT22;7423;48.722;9.350;2023-05-27T11:44:57;24.10;91.60
14670;DHT22;7423;48.722;9.350;2023-05-27T11:47:26;24.20;91.40
14670;DHT22;7423;48.722;9.350;2023-05-27T11:49:53;24.20;91.30
14670;DHT22;7423;48.722;9.350;2023-05-27T11:52:24;24.30;91.30
14670;DHT22;7423;48.722;9.350;2023-05-27T11:54:52;24.40;91.10
14670;DHT22;7423;48.722;9.350;2023-05-27T11:57:24;24.50;91.10
14670;DHT22;7423;48.722;9.350;2023-05-27T11:59:51;24.50;90.20
14670;DHT22;7423;48.722;9.350;2023-05-27T12:02:18;24.60;90.70
14670;DHT22;7423;48.722;9.350;2023-05-27T12:04:48;24.60;90.60
14670;DHT22;7423;48.722;9.350;2023-05-27T12:07:15;24.80;90.50
14670;DHT22;7423;48.722;9.350;2023-05-27T12:09:47;24.90;90.50
14670;DHT22;7423;48.722;9.350;2023-05-27T12:12:16;24.90;90.00
14670;DHT22;7423;48.722;9.350;2023-05-27T12:14:44;24.90;89.90
14670;DHT22;7423;48.722;9.350;2023-05-27T12:17:11;25.00;89.70
14670;DHT22;7423;48.722;9.350;2023-05-27T12:19:38;25.10;89.00
14670;DHT22;7423;48.722;9.350;2023-05-27T12:22:05;27.10;89.80
14670;DHT22;7423;48.722;9.350;2023-05-27T12:24:32;25.10;88.00
14670;DHT22;7423;48.722;9.350;2023-05-27T12:27:00;25.30;88.20
14670;DHT22;7423;48.722;9.350;2023-05-27T12:29:28;25.40;88.60
14670;DHT22;7423;48.722;9.350;2023-05-27T12:31:56;25.50;88.20
14670;DHT22;7423;48.722;9.350;2023-05-27T12:34:24;25.40;87.80
14670;DHT22;7423;48.722;9.350;2023-05-27T12:36:52;25.50;87.70
14670;DHT22;7423;48.722;9.350;2023-05-27T12:39:19;25.50;87.80
14670;DHT22;7423;48.722;9.350;2023-05-27T12:41:47;25.50;87.50
14670;DHT22;7423;48.722;9.350;2023-05-27T12:44:14;25.50;87.30
14670;DHT22;7423;48.722;9.350;2023-05-27T12:46:42;25.50;87.00
14670;DHT22;7423;48.722;9.350;2023-05-27T12:49:09;25.60;86.80
14670;DHT22;7423;48.722;9.350;2023-05-27T12:51:36;25.60;86.80
14670;DHT22;7423;48.722;9.350;2023-05-27T12:54:04;25.60;86.50
14670;DHT22;7423;48.722;9.350;2023-05-27T12:56:31;25.60;85.60
14670;DHT22;7423;48.722;9.350;2023-05-27T12:58:58;25.70;85.30
14670;DHT22;7423;48.722;9.350;2023-05-27T13:01:25;25.70;84.70
14670;DHT22;7423;48.722;9.350;2023-05-27T13:03:52;25.70;85.70
14670;DHT22;7423;48.722;9.350;2023-05-27T13:06:19;25.70;86.30
14670;DHT22;7423;48.722;9.350;2023-05-27T13:08:46;25.70;87.50
14670;DHT22;7423;48.722;9.350;2023-05-27T13:11:13;25.60;85.20
14670;DHT22;7423;48.722;9.350;2023-05-27T13:13:40;26.40;87.10
14670;DHT22;7423;48.722;9.350;2023-05-27T13:16:07;25.70;87.40
14670;DHT22;7423;48.722;9.350;2023-05-27T13:18:34;25.70;86.90
14670;DHT22;7423;48.722;9.350;2023-05-27T13:21:03;25.70;87.40
14670;DHT22;7423;48.722;9.350;2023-05-27T13:23:30;25.70;86.20
14670;DHT22;7423;48.722;9.350;2023-05-27T13:25:57;25.60;84.90
14670;DHT22;7423;48.722;9.350;2023-05-27T13:28:24;25.70;85.80
14670;DHT22;7423;48.722;9.350;2023-05-27T13:30:51;25.70;85.70
14670;DHT22;7423;48.722;9.350;2023-05-27T13:33:17;25.70;84.70
14670;DHT22;7423;48.722;9.350;2023-05-27T13:35:44;26.00;85.90
14670;DHT22;7423;48.722;9.350;2023-05-27T13:38:11;25.70;85.30
14670;DHT22;7423;48.722;9.350;2023-05-27T13:40:41;25.80;85.40
14670;DHT22;7423;48.722;9.350;2023-05-27T13:43:08;25.70;84.60
14670;DHT22;7423;48.722;9.350;2023-05-27T13:45:35;25.70;82.20
14670;DHT22;7423;48.722;9.350;2023-05-27T13:48:02;25.50;80.90
14670;DHT22;7423;48.722;9.350;2023-05-27T13:50:29;25.70;81.80
14670;DHT22;7423;48.722;9.350;2023-05-27T13:52:58;25.70;83.30
14670;DHT22;7423;48.722;9.350;2023-05-27T13:55:24;25.70;84.00
14670;DHT22;7423;48.722;9.350;2023-05-27T13:57:52;25.70;83.20
14670;DHT22;7423;48.722;9.350;2023-05-27T14:00:18;25.70;82.40
14670;DHT22;7423;48.722;9.350;2023-05-27T14:02:46;25.70;82.50
14670;DHT22;7423;48.722;9.350;2023-05-27T14:05:13;25.70;82.10
14670;DHT22;7423;48.722;9.350;2023-05-27T14:07:43;25.70;81.50
14670;DHT22;7423;48.722;9.350;2023-05-27T14:10:12;25.70;80.30
14670;DHT22;7423;48.722;9.350;2023-05-27T14:12:39;25.80;81.60
14670;DHT22;7423;48.722;9.350;2023-05-27T14:15:06;25.80;81.40
14670;DHT22;7423;48.722;9.350;2023-05-27T14:17:34;25.80;82.60
14670;DHT22;7423;48.722;9.350;2023-05-27T14:20:01;25.90;82.30
14670;DHT22;7423;48.722;9.350;2023-05-27T14:22:29;25.90;82.90
14670;DHT22;7423;48.722;9.350;2023-05-27T14:24:57;25.90;82.20
14670;DHT22;7423;48.722;9.350;2023-05-27T14:27:24;25.90;82.30
14670;DHT22;7423;48.722;9.350;2023-05-27T14:29:51;25.90;82.30
14670;DHT22;7423;48.722;9.350;2023-05-27T14:32:18;25.90;82.10
14670;DHT22;7423;48.722;9.350;2023-05-27T14:34:45;25.80;80.00
14670;DHT22;7423;48.722;9.350;2023-05-27T14:37:11;25.70;78.70
14670;DHT22;7423;48.722;9.350;2023-05-27T14:39:38;25.80;80.50
14670;DHT22;7423;48.722;9.350;2023-05-27T14:42:05;25.80;80.90
14670;DHT22;7423;48.722;9.350;2023-05-27T14:44:34;25.80;80.90
14670;DHT22;7423;48.722;9.350;2023-05-27T14:47:04;25.80;79.70
14670;DHT22;7423;48.722;9.350;2023-05-27T14:49:32;25.80;78.60
14670;DHT22;7423;48.722;9.350;2023-05-27T14:51:58;25.70;76.60
14670;DHT22;7423;48.722;9.350;2023-05-27T14:54:25;25.80;77.60
14670;DHT22;7423;48.722;9.350;2023-05-27T14:56:52;25.80;77.80
14670;DHT22;7423;48.722;9.350;2023-05-27T14:59:19;27.40;78.80
14670;DHT22;7423;48.722;9.350;2023-05-27T15:01:48;25.90;78.30
14670;DHT22;7423;48.722;9.350;2023-05-27T15:04:15;25.90;78.20
14670;DHT22;7423;48.722;9.350;2023-05-27T15:06:43;26.00;77.90
14670;DHT22;7423;48.722;9.350;2023-05-27T15:09:10;26.00;78.60
14670;DHT22;7423;48.722;9.350;2023-05-27T15:11:40;26.00;77.70
14670;DHT22;7423;48.722;9.350;2023-05-27T15:14:07;25.90;77.40
14670;DHT22;7423;48.722;9.350;2023-05-27T15:16:35;26.00;76.50
14670;DHT22;7423;48.722;9.350;2023-05-27T15:19:02;25.90;76.70
14670;DHT22;7423;48.722;9.350;2023-05-27T15:21:29;25.90;77.20
14670;DHT22;7423;48.722;9.350;2023-05-27T15:23:56;25.90;76.00
14670;DHT22;7423;48.722;9.350;2023-05-27T15:26:23;25.90;76.10
14670;DHT22;7423;48.722;9.350;2023-05-27T15:28:50;26.00;75.80
14670;DHT22;7423;48.722;9.350;2023-05-27T15:31:17;26.00;75.50
14670;DHT22;7423;48.722;9.350;2023-05-27T15:33:44;26.00;75.70
14670;DHT22;7423;48.722;9.350;2023-05-27T15:36:11;25.90;75.50
14670;DHT22;7423;48.722;9.350;2023-05-27T15:38:38;25.90;75.20
14670;DHT22;7423;48.722;9.350;2023-05-27T15:41:05;25.90;75.30
14670;DHT22;7423;48.722;9.350;2023-05-27T15:43:32;25.90;74.80
14670;DHT22;7423;48.722;9.350;2023-05-27T15:45:59;25.80;74.50
14670;DHT22;7423;48.722;9.350;2023-05-27T15:48:31;25.80;74.40
14670;DHT22;7423;48.722;9.350;2023-05-27T15:50:58;25.90;74.70
14670;DHT22;7423;48.722;9.350;2023-05-27T15:53:25;26.00;75.00
14670;DHT22;7423;48.722;9.350;2023-05-27T15:55:52;26.00;74.70